PILOTS ONLINE: 279    ATC ONLINE: 32

KBLH

Blythe Airport

Location

IATA BLH
City Blythe
Country  United States
Latitude 33° 37' 9" N
Longitude 114° 43' 1" W
Elevation 399 ft
Type Medium Airport

Map

Weather

METAR
2014/09/22 09:52
KBLH 220952Z AUTO 24003KT 10SM CLR 27/09 A2986 RMK AO2 SLP104 T02720094
TAF
2014/09/22 06:27
TAF KBLH 220524Z 2206/2306 21006KT P6SM SKC 
     FM220700 VRB05KT P6SM SKC 
     FM230100 21006KT P6SM SKC

Runways

08/26 6543 ft / 150 ft
17/35 5800 ft / 100 ft

Outbound flights

Callsign Flying to Pilot ATD/STD ETA Aircraft

Inbound flights

Callsign Flying from Pilot ATD ETA Aircraft